Terminal Aerodrome Forecast
Issued by NWS Twin Cities, MN

Home | Current Version | Previous Version | Text Only | Print | Product List | Glossary Off
Versions: 1 2 3 4 5 6 7 8 9 10 11 12 13 14 15 16 17 18

000
FTUS43 KMPX 221500 AAA
TAFSTC
TAF AMD
KSTC 221517Z 2215/2312 16012G18KT P6SM BKN050
     FM221700 17018G24KT P6SM SCT080 BKN150
     FM230000 16011KT P6SM SCT030 BKN080
     FM230300 17010KT 5SM -SHRA BR BKN020 OVC040
     FM230600 20006KT 6SM BR SCT015 BKN050=

USA.gov is the U.S. government's official web portal to all federal, state and local government web resources and services.